createdAt,value
2022-11-24T00:01:05.904Z,6.65
2022-11-24T00:03:33.036Z,6.66
2022-11-24T00:06:08.238Z,6.69
2022-11-24T00:08:35.827Z,6.72
2022-11-24T00:11:06.698Z,6.76
2022-11-24T00:13:33.639Z,6.83
2022-11-24T00:16:14.617Z,6.89
2022-11-24T00:18:42.812Z,6.94
2022-11-24T00:21:09.734Z,6.95
2022-11-24T00:23:37.080Z,6.95
2022-11-24T00:26:14.975Z,6.94
2022-11-24T00:28:43.731Z,6.92
2022-11-24T00:31:30.669Z,6.88
2022-11-24T00:34:00.698Z,6.83
2022-11-24T00:36:29.518Z,6.81
2022-11-24T00:38:58.222Z,6.81
2022-11-24T00:41:25.840Z,6.80
2022-11-24T00:43:52.726Z,6.84
2022-11-24T00:46:19.794Z,6.89
2022-11-24T00:48:46.923Z,6.91
2022-11-24T00:51:15.359Z,6.85
2022-11-24T00:53:42.126Z,6.81
2022-11-24T00:56:10.095Z,6.78
2022-11-24T00:58:36.748Z,6.75
2022-11-24T01:01:20.614Z,6.75
2022-11-24T01:03:47.815Z,6.73
2022-11-24T01:06:18.249Z,6.71
2022-11-24T01:08:45.593Z,6.70
2022-11-24T01:11:25.017Z,6.67
2022-11-24T01:13:54.536Z,6.62
2022-11-24T01:16:34.644Z,6.62
2022-11-24T01:19:01.556Z,6.58
2022-11-24T01:21:28.056Z,6.52
2022-11-24T01:23:54.541Z,6.50
2022-11-24T01:26:22.663Z,6.47
2022-11-24T01:28:54.292Z,6.44
2022-11-24T01:31:21.226Z,6.45
2022-11-24T01:33:47.856Z,6.46
2022-11-24T01:36:14.340Z,6.42
2022-11-24T01:38:40.914Z,6.44
2022-11-24T01:41:14.898Z,6.40
2022-11-24T01:43:42.733Z,6.37
2022-11-24T01:46:34.081Z,6.33
2022-11-24T01:49:21.894Z,6.31
2022-11-24T01:51:58.061Z,6.28
2022-11-24T01:54:33.551Z,6.29
2022-11-24T01:57:09.182Z,6.31
2022-11-24T01:59:36.583Z,6.34
2022-11-24T02:02:03.839Z,6.38
2022-11-24T02:04:33.971Z,6.44
2022-11-24T02:07:03.402Z,6.48
2022-11-24T02:09:43.348Z,6.53
2022-11-24T02:12:10.342Z,6.57
2022-11-24T02:14:39.677Z,6.65
2022-11-24T02:17:06.286Z,6.70
2022-11-24T02:19:41.948Z,6.78
2022-11-24T02:22:24.478Z,6.81
2022-11-24T02:24:59.845Z,6.85
2022-11-24T02:27:26.327Z,6.90
2022-11-24T02:29:52.927Z,6.93
2022-11-24T02:32:20.393Z,6.98
2022-11-24T02:34:47.070Z,7.04
2022-11-24T02:37:13.524Z,7.07
2022-11-24T02:39:40.003Z,7.07
2022-11-24T02:42:10.381Z,7.06
2022-11-24T02:44:45.989Z,7.08
2022-11-24T02:47:13.148Z,7.11
2022-11-24T02:49:40.427Z,7.11
2022-11-24T02:52:08.123Z,7.10
2022-11-24T02:54:34.860Z,7.12
2022-11-24T02:57:01.707Z,7.12
2022-11-24T02:59:28.230Z,7.09
2022-11-24T03:01:54.826Z,7.09
2022-11-24T03:04:21.360Z,7.08
2022-11-24T03:06:47.912Z,7.10
2022-11-24T03:09:14.555Z,7.18
2022-11-24T03:11:41.050Z,7.19
2022-11-24T03:14:07.591Z,7.20
2022-11-24T03:16:34.849Z,7.22
2022-11-24T03:19:01.792Z,7.24
2022-11-24T03:21:28.452Z,7.27
2022-11-24T03:23:54.939Z,7.25
2022-11-24T03:26:23.315Z,7.25
2022-11-24T03:28:50.192Z,7.26
2022-11-24T03:31:16.745Z,7.29
2022-11-24T03:33:43.258Z,7.29
2022-11-24T03:36:09.971Z,7.29
2022-11-24T03:38:36.453Z,7.30
2022-11-24T03:41:02.961Z,7.26
2022-11-24T03:43:29.469Z,7.24
2022-11-24T03:45:56.624Z,7.21
2022-11-24T03:48:23.241Z,7.21
2022-11-24T03:50:57.579Z,7.20
2022-11-24T03:53:25.261Z,7.21
2022-11-24T03:55:52.503Z,7.22
2022-11-24T03:58:19.585Z,7.22
2022-11-24T04:00:51.854Z,7.23
2022-11-24T04:03:19.150Z,7.30
2022-11-24T04:05:46.269Z,7.30
2022-11-24T04:08:13.288Z,7.31
2022-11-24T04:10:40.206Z,7.33
2022-11-24T04:13:18.491Z,7.36
2022-11-24T04:15:45.192Z,7.35
2022-11-24T04:18:12.898Z,7.33
2022-11-24T04:20:40.516Z,7.33
2022-11-24T04:23:07.849Z,7.31
2022-11-24T04:25:34.556Z,7.30
2022-11-24T04:28:01.123Z,7.27
2022-11-24T04:30:29.315Z,7.25
2022-11-24T04:32:56.959Z,7.25
2022-11-24T04:35:23.846Z,7.25
2022-11-24T04:37:50.503Z,7.24
2022-11-24T04:40:17.633Z,7.25
2022-11-24T04:42:44.248Z,7.27
2022-11-24T04:45:11.042Z,7.27
2022-11-24T04:47:38.369Z,7.30
2022-11-24T04:50:07.812Z,7.30
2022-11-24T04:52:34.426Z,7.30
2022-11-24T04:55:01.286Z,7.31
2022-11-24T04:57:28.055Z,7.30
2022-11-24T04:59:54.968Z,7.33
2022-11-24T05:02:21.608Z,7.32
2022-11-24T05:04:48.227Z,7.32
2022-11-24T05:07:18.870Z,7.33
2022-11-24T05:10:05.033Z,7.35
2022-11-24T05:12:31.518Z,7.32
2022-11-24T05:15:02.677Z,7.35
2022-11-24T05:17:37.070Z,7.37
2022-11-24T05:20:05.610Z,7.40
2022-11-24T05:22:31.952Z,7.40
2022-11-24T05:24:58.658Z,7.37
2022-11-24T05:27:25.172Z,7.33
2022-11-24T05:29:51.555Z,7.32
2022-11-24T05:32:17.951Z,7.29
2022-11-24T05:34:44.425Z,7.27
2022-11-24T05:37:10.775Z,7.25
2022-11-24T05:39:38.018Z,7.22
2022-11-24T05:42:24.990Z,7.18
2022-11-24T05:44:52.151Z,7.14
2022-11-24T05:47:19.058Z,7.11
2022-11-24T05:49:45.395Z,7.08
2022-11-24T05:52:12.272Z,7.06
2022-11-24T05:54:38.683Z,7.03
2022-11-24T05:57:05.330Z,7.02
2022-11-24T05:59:31.770Z,7.01
2022-11-24T06:01:58.217Z,6.99
2022-11-24T06:04:24.576Z,6.97
2022-11-24T06:06:50.926Z,6.97
2022-11-24T06:09:17.747Z,6.98
2022-11-24T06:11:44.180Z,6.97
2022-11-24T06:14:11.479Z,6.98
2022-11-24T06:16:38.285Z,6.95
2022-11-24T06:19:04.802Z,6.97
2022-11-24T06:21:31.786Z,6.98
2022-11-24T06:23:58.424Z,6.97
2022-11-24T06:26:24.790Z,6.96
2022-11-24T06:28:51.128Z,6.96
2022-11-24T06:31:17.573Z,6.96
2022-11-24T06:33:44.244Z,6.97
2022-11-24T06:36:13.151Z,6.97
2022-11-24T06:38:39.692Z,6.94
2022-11-24T06:41:09.915Z,6.96
2022-11-24T06:43:36.691Z,6.99
2022-11-24T06:46:04.068Z,6.98
2022-11-24T06:48:31.197Z,6.99
2022-11-24T06:51:02.381Z,7.00
2022-11-24T06:53:32.895Z,6.98
2022-11-24T06:56:01.013Z,6.95
2022-11-24T06:58:27.791Z,6.92
2022-11-24T07:00:54.414Z,6.88
2022-11-24T07:03:21.202Z,6.81
2022-11-24T07:05:47.711Z,6.75
2022-11-24T07:08:17.944Z,6.70
2022-11-24T07:10:45.409Z,6.66
2022-11-24T07:13:11.786Z,6.60
2022-11-24T07:15:38.111Z,6.58
2022-11-24T07:18:04.788Z,6.58
2022-11-24T07:20:31.554Z,6.58
2022-11-24T07:22:58.464Z,6.62
2022-11-24T07:25:25.698Z,6.64
2022-11-24T07:27:56.882Z,6.68
2022-11-24T07:30:24.010Z,6.70
2022-11-24T07:32:50.378Z,6.72
2022-11-24T07:35:17.739Z,6.75
2022-11-24T07:37:44.215Z,6.75
2022-11-24T07:40:11.126Z,6.79
2022-11-24T07:42:37.463Z,6.80
2022-11-24T07:45:04.089Z,6.82
2022-11-24T07:47:30.454Z,6.82
2022-11-24T07:49:56.792Z,6.85
2022-11-24T07:52:26.514Z,6.86
2022-11-24T07:54:52.939Z,6.86
2022-11-24T07:57:19.318Z,6.88
2022-11-24T07:59:45.685Z,6.89
2022-11-24T08:02:13.171Z,6.91
2022-11-24T08:04:39.584Z,6.93
2022-11-24T08:07:05.936Z,6.94
2022-11-24T08:09:32.271Z,6.95
2022-11-24T08:11:58.612Z,6.99
2022-11-24T08:14:24.963Z,7.04
2022-11-24T08:16:51.389Z,7.05
2022-11-24T08:19:17.825Z,7.09
2022-11-24T08:21:44.220Z,7.11
2022-11-24T08:24:10.788Z,7.12
2022-11-24T08:26:37.135Z,7.15
2022-11-24T08:29:03.488Z,7.17
2022-11-24T08:31:33.906Z,7.19
2022-11-24T08:34:01.764Z,7.21
2022-11-24T08:36:28.210Z,7.21
2022-11-24T08:38:59.410Z,7.19
2022-11-24T08:41:27.007Z,7.20
2022-11-24T08:43:54.135Z,7.23
2022-11-24T08:46:21.008Z,7.32
2022-11-24T08:48:53.623Z,7.43
2022-11-24T08:51:25.929Z,7.50
2022-11-24T08:54:00.902Z,7.56
2022-11-24T08:56:29.228Z,7.59
2022-11-24T08:58:56.487Z,7.61
2022-11-24T09:01:23.729Z,7.60
2022-11-24T09:03:51.517Z,7.55
2022-11-24T09:06:20.037Z,7.49
2022-11-24T09:08:46.428Z,7.42
2022-11-24T09:11:15.188Z,7.37
2022-11-24T09:13:42.037Z,7.40
2022-11-24T09:16:12.132Z,7.46
2022-11-24T09:18:38.988Z,7.53
2022-11-24T09:21:09.715Z,7.60
2022-11-24T09:23:38.461Z,7.63
2022-11-24T09:26:13.886Z,7.64
2022-11-24T09:28:41.487Z,7.65
2022-11-24T09:31:11.235Z,7.68
2022-11-24T09:33:38.789Z,7.70
2022-11-24T09:36:06.339Z,7.73
2022-11-24T09:38:33.169Z,7.75
2022-11-24T09:41:32.517Z,7.79
2022-11-24T09:44:27.486Z,7.84
2022-11-24T09:47:02.775Z,7.88
2022-11-24T09:49:51.631Z,7.90
2022-11-24T09:52:37.617Z,7.96
2022-11-24T09:55:12.860Z,7.99
2022-11-24T09:57:43.829Z,8.03
2022-11-24T10:00:13.151Z,8.08
2022-11-24T10:02:39.573Z,8.10
2022-11-24T10:05:06.797Z,8.12
2022-11-24T10:07:42.401Z,8.17
2022-11-24T10:10:24.261Z,8.21
2022-11-24T10:12:54.170Z,8.24
2022-11-24T10:15:58.433Z,8.29
2022-11-24T10:18:33.721Z,8.32
2022-11-24T10:21:31.799Z,8.38
2022-11-24T10:24:24.385Z,8.43
2022-11-24T10:26:58.140Z,8.46
2022-11-24T10:29:37.644Z,8.44
2022-11-24T10:32:07.577Z,8.48
2022-11-24T10:34:37.588Z,8.58
2022-11-24T10:37:27.524Z,8.63
2022-11-24T10:40:03.916Z,8.62
2022-11-24T10:42:36.712Z,8.64
2022-11-24T10:45:10.904Z,8.73
2022-11-24T10:47:38.280Z,8.81
2022-11-24T10:50:09.780Z,8.92
2022-11-24T10:52:43.067Z,9.04
2022-11-24T10:55:09.756Z,9.15
2022-11-24T10:57:38.570Z,9.23
2022-11-24T11:00:24.860Z,9.33
2022-11-24T11:03:11.634Z,9.38
2022-11-24T11:06:02.412Z,9.49
2022-11-24T11:08:31.260Z,9.52
2022-11-24T11:11:21.605Z,9.46
2022-11-24T11:14:01.523Z,9.39
2022-11-24T11:16:53.711Z,9.41
2022-11-24T11:19:55.455Z,9.56
2022-11-24T11:22:32.033Z,9.62
2022-11-24T11:25:03.717Z,9.63
2022-11-24T11:27:30.144Z,9.65
2022-11-24T11:35:50.257Z,9.77
2022-11-24T11:38:16.650Z,9.82
2022-11-24T11:40:43.778Z,9.87
2022-11-24T11:43:23.258Z,9.95
2022-11-24T11:46:00.854Z,9.99
2022-11-24T11:48:40.630Z,10.01
2022-11-24T11:51:31.078Z,10.07
2022-11-24T11:54:20.749Z,10.10
2022-11-24T11:57:04.688Z,10.13
2022-11-24T11:59:56.263Z,10.18
2022-11-24T12:02:38.216Z,10.21
2022-11-24T12:05:19.572Z,10.21
2022-11-24T12:08:14.551Z,10.21
2022-11-24T12:10:54.238Z,10.23
2022-11-24T12:13:44.109Z,10.22
2022-11-24T12:16:25.077Z,10.25
2022-11-24T12:19:38.143Z,10.29
2022-11-24T12:22:22.335Z,10.29
2022-11-24T12:24:57.503Z,10.30
2022-11-24T12:27:41.359Z,10.34
2022-11-24T12:30:19.409Z,10.37
2022-11-24T12:33:17.811Z,10.39
2022-11-24T12:35:45.638Z,10.40
2022-11-24T12:38:33.796Z,10.39
2022-11-24T12:41:41.842Z,10.41
2022-11-24T12:44:44.459Z,10.36
2022-11-24T12:47:24.825Z,10.34
2022-11-24T12:50:06.582Z,10.31
2022-11-24T12:52:38.165Z,10.33
2022-11-24T12:55:05.559Z,10.35
2022-11-24T12:57:59.028Z,10.35
2022-11-24T13:01:10.407Z,10.34
2022-11-24T13:04:04.552Z,10.28
2022-11-24T13:06:37.594Z,10.29
2022-11-24T13:09:12.330Z,10.29
2022-11-24T13:11:52.953Z,10.27
2022-11-24T13:14:28.228Z,10.25
2022-11-24T13:17:29.745Z,10.24
2022-11-24T13:19:44.631Z,10.24
2022-11-24T13:22:16.888Z,10.23
2022-11-24T13:24:44.908Z,10.21
2022-11-24T13:27:16.756Z,10.19
2022-11-24T13:29:45.081Z,10.19
2022-11-24T13:32:14.512Z,10.15
2022-11-24T13:34:40.815Z,10.14
2022-11-24T13:37:31.607Z,10.12
2022-11-24T13:40:11.263Z,10.09
2022-11-24T13:42:56.280Z,10.09
2022-11-24T13:45:49.483Z,10.08
2022-11-24T13:48:18.804Z,10.07
2022-11-24T13:50:51.725Z,10.06
2022-11-24T13:53:25.606Z,10.03
2022-11-24T13:55:59.223Z,10.02
2022-11-24T13:58:50.390Z,10.03
2022-11-24T14:01:32.919Z,9.99
2022-11-24T14:04:29.778Z,9.96
2022-11-24T14:07:07.442Z,9.94
2022-11-24T14:09:47.529Z,9.88
2022-11-24T14:12:20.318Z,9.85
2022-11-24T14:14:49.349Z,9.81
2022-11-24T14:17:23.416Z,9.78
2022-11-24T14:19:52.707Z,9.76
2022-11-24T14:22:24.258Z,9.75
2022-11-24T14:24:57.032Z,9.70
2022-11-24T14:27:31.485Z,9.67
2022-11-24T14:30:17.972Z,9.61
2022-11-24T14:32:54.674Z,9.56
2022-11-24T14:35:33.075Z,9.47
2022-11-24T14:38:04.387Z,9.39
2022-11-24T14:40:50.281Z,9.31
2022-11-24T14:43:25.592Z,9.23
2022-11-24T14:45:58.508Z,9.16
2022-11-24T14:48:28.185Z,9.13
2022-11-24T14:51:06.096Z,9.06
2022-11-24T14:53:34.358Z,8.98
2022-11-24T14:56:10.849Z,8.91
2022-11-24T14:58:41.958Z,8.86
2022-11-24T15:01:19.803Z,8.77
2022-11-24T15:03:46.996Z,8.70
2022-11-24T15:06:20.987Z,8.64
2022-11-24T15:08:49.274Z,8.59
2022-11-24T15:11:15.973Z,8.53
2022-11-24T15:13:53.331Z,8.48
2022-11-24T15:16:21.649Z,8.41
2022-11-24T15:18:55.328Z,8.35
2022-11-24T15:21:33.094Z,8.28
2022-11-24T15:24:17.044Z,8.18
2022-11-24T15:26:44.630Z,8.13
2022-11-24T15:29:12.329Z,8.08
2022-11-24T15:31:45.294Z,8.03
2022-11-24T15:34:15.662Z,7.98
2022-11-24T15:36:42.022Z,7.96
2022-11-24T15:39:08.355Z,7.90
2022-11-24T15:41:34.849Z,7.85
2022-11-24T15:44:01.288Z,7.80
2022-11-24T15:46:28.861Z,7.74
2022-11-24T15:48:55.954Z,7.68
2022-11-24T15:51:26.067Z,7.63
2022-11-24T15:54:00.252Z,7.59
2022-11-24T15:56:32.832Z,7.55
2022-11-24T15:59:00.263Z,7.52
2022-11-24T16:01:31.291Z,7.49
2022-11-24T16:03:57.809Z,7.44
2022-11-24T16:06:25.474Z,7.41
2022-11-24T16:08:53.472Z,7.37
2022-11-24T16:11:20.492Z,7.34
2022-11-24T16:13:52.032Z,7.31
2022-11-24T16:16:20.509Z,7.27
2022-11-24T16:18:46.918Z,7.23
2022-11-24T16:21:13.275Z,7.20
2022-11-24T16:23:40.475Z,7.18
2022-11-24T16:26:07.348Z,7.14
2022-11-24T16:28:33.875Z,7.13
2022-11-24T16:31:00.232Z,7.12
2022-11-24T16:33:29.158Z,7.10
2022-11-24T16:35:55.499Z,7.06
2022-11-24T16:38:21.899Z,7.04
2022-11-24T16:40:52.607Z,7.05
2022-11-24T16:43:19.387Z,7.04
2022-11-24T16:45:45.956Z,7.02
2022-11-24T16:48:12.573Z,7.00
2022-11-24T16:50:39.076Z,7.02
2022-11-24T16:53:05.396Z,7.01
2022-11-24T16:55:31.714Z,7.01
2022-11-24T16:57:58.025Z,7.04
2022-11-24T17:00:24.461Z,7.05
2022-11-24T17:02:50.844Z,7.04
2022-11-24T17:05:17.240Z,7.01
2022-11-24T17:07:43.605Z,6.98
2022-11-24T17:10:10.389Z,6.92
2022-11-24T17:12:37.579Z,6.90
2022-11-24T17:18:22.304Z,6.89
2022-11-24T17:20:38.023Z,6.84
2022-11-24T17:23:04.350Z,6.84
2022-11-24T17:25:32.153Z,6.82
2022-11-24T17:27:58.474Z,6.83
2022-11-24T17:30:24.825Z,6.85
2022-11-24T17:32:56.411Z,6.89
2022-11-24T17:35:23.534Z,6.91
2022-11-24T17:37:49.925Z,6.91
2022-11-24T17:40:34.259Z,6.95
2022-11-24T17:43:04.273Z,6.96
2022-11-24T17:45:32.879Z,6.93
2022-11-24T17:48:00.774Z,6.90
2022-11-24T17:50:30.060Z,6.90
2022-11-24T17:53:13.512Z,6.86
2022-11-24T17:55:40.809Z,6.84
2022-11-24T17:58:07.156Z,6.81
2022-11-24T18:00:33.595Z,6.76
2022-11-24T18:03:00.877Z,6.74
2022-11-24T18:05:27.537Z,6.77
2022-11-24T18:07:54.990Z,6.81
2022-11-24T18:10:21.454Z,6.86
2022-11-24T18:12:47.839Z,6.95
2022-11-24T18:15:14.299Z,6.94
2022-11-24T18:17:40.661Z,6.94
2022-11-24T18:20:07.618Z,6.93
2022-11-24T18:23:04.178Z,6.97
2022-11-24T18:25:20.334Z,7.00
2022-11-24T18:27:46.851Z,7.03
2022-11-24T18:30:13.493Z,7.05
2022-11-24T18:32:39.913Z,7.04
2022-11-24T18:35:06.862Z,7.07
2022-11-24T18:37:33.946Z,7.09
2022-11-24T18:40:00.292Z,7.10
2022-11-24T18:42:26.798Z,7.08
2022-11-24T18:44:54.330Z,7.07
2022-11-24T18:47:20.805Z,7.07
2022-11-24T18:49:47.218Z,7.03
2022-11-24T18:52:13.666Z,6.98
2022-11-24T18:54:40.064Z,7.01
2022-11-24T18:57:06.398Z,6.97
2022-11-24T18:59:32.742Z,6.93
2022-11-24T19:01:59.114Z,6.90
2022-11-24T19:04:26.156Z,6.85
2022-11-24T19:06:52.516Z,6.84
2022-11-24T19:09:20.475Z,6.83
2022-11-24T19:11:47.412Z,6.77
2022-11-24T19:14:16.659Z,6.78
2022-11-24T19:16:43.465Z,6.74
2022-11-24T19:19:12.086Z,6.73
2022-11-24T19:21:40.028Z,6.75
2022-11-24T19:24:09.947Z,6.74
2022-11-24T19:26:37.170Z,6.70
2022-11-24T19:29:04.981Z,6.66
2022-11-24T19:31:31.688Z,6.66
2022-11-24T19:33:59.714Z,6.66
2022-11-24T19:36:26.501Z,6.64
2022-11-24T19:38:54.862Z,6.61
2022-11-24T19:41:24.785Z,6.59
2022-11-24T19:43:53.435Z,6.64
2022-11-24T19:46:21.208Z,6.66
2022-11-24T19:48:50.359Z,6.62
2022-11-24T19:51:22.622Z,6.60
2022-11-24T19:53:49.228Z,6.55
2022-11-24T19:56:27.007Z,6.58
2022-11-24T19:58:54.464Z,6.60
2022-11-24T20:01:27.599Z,6.59
2022-11-24T20:03:58.808Z,6.55
2022-11-24T20:06:27.834Z,6.54
2022-11-24T20:08:54.753Z,6.56
2022-11-24T20:11:21.548Z,6.57
2022-11-24T20:13:49.691Z,6.59
2022-11-24T20:16:18.805Z,6.60
2022-11-24T20:18:47.159Z,6.57
2022-11-24T20:21:19.440Z,6.57
2022-11-24T20:23:51.106Z,6.61
2022-11-24T20:26:19.720Z,6.62
2022-11-24T20:28:47.260Z,6.67
2022-11-24T20:31:19.739Z,6.65
2022-11-24T20:33:46.656Z,6.57
2022-11-24T20:36:18.491Z,6.55
2022-11-24T20:38:46.125Z,6.57
2022-11-24T20:41:17.968Z,6.66
2022-11-24T20:43:44.933Z,6.68
2022-11-24T20:46:16.826Z,6.68
2022-11-24T20:48:44.064Z,6.72
2022-11-24T20:51:17.088Z,6.74
2022-11-24T20:53:43.621Z,6.75
2022-11-24T20:56:13.232Z,6.80
2022-11-24T20:58:39.836Z,6.84
2022-11-24T21:01:12.637Z,6.88
2022-11-24T21:03:43.363Z,6.93
2022-11-24T21:06:11.893Z,6.99
2022-11-24T21:08:40.329Z,6.98
2022-11-24T21:11:08.443Z,6.99
2022-11-24T21:13:36.483Z,7.01
2022-11-24T21:16:21.241Z,7.04
2022-11-24T21:18:50.846Z,7.07
2022-11-24T21:21:18.435Z,7.10
2022-11-24T21:23:47.991Z,7.14
2022-11-24T21:26:17.182Z,7.19
2022-11-24T21:28:46.440Z,7.19
2022-11-24T21:31:17.949Z,7.19
2022-11-24T21:33:46.978Z,7.21
2022-11-24T21:36:15.907Z,7.23
2022-11-24T21:38:42.753Z,7.24
2022-11-24T21:41:10.780Z,7.25
2022-11-24T21:43:37.656Z,7.24
2022-11-24T21:46:09.422Z,7.24
2022-11-24T21:48:36.933Z,7.26
2022-11-24T21:51:06.113Z,7.23
2022-11-24T21:53:35.543Z,7.23
2022-11-24T21:56:05.460Z,7.22
2022-11-24T21:58:33.276Z,7.22
2022-11-24T22:01:10.949Z,7.25
2022-11-24T22:03:37.907Z,7.26
2022-11-24T22:06:04.922Z,7.27
2022-11-24T22:08:31.497Z,7.29
2022-11-24T22:11:21.434Z,7.32
2022-11-24T22:13:48.748Z,7.33
2022-11-24T22:16:20.623Z,7.35
2022-11-24T22:18:47.421Z,7.34
2022-11-24T22:21:29.740Z,7.35
2022-11-24T22:23:56.114Z,7.38
2022-11-24T22:26:23.705Z,7.41
2022-11-24T22:28:50.770Z,7.40
2022-11-24T22:31:23.531Z,7.40
2022-11-24T22:33:51.165Z,7.36
2022-11-24T22:36:20.770Z,7.34
2022-11-24T22:38:48.090Z,7.34
2022-11-24T22:41:16.762Z,7.36
2022-11-24T22:43:44.707Z,7.40
2022-11-24T22:46:16.864Z,7.42
2022-11-24T22:48:45.091Z,7.41
2022-11-24T22:51:25.913Z,7.42
2022-11-24T22:53:55.061Z,7.41
2022-11-24T22:56:22.351Z,7.39
2022-11-24T22:58:49.173Z,7.40
2022-11-24T23:01:18.910Z,7.40
2022-11-24T23:03:45.626Z,7.41
2022-11-24T23:06:17.577Z,7.42
2022-11-24T23:08:44.256Z,7.44
2022-11-24T23:11:17.641Z,7.45
2022-11-24T23:13:44.370Z,7.43
2022-11-24T23:16:16.998Z,7.44
2022-11-24T23:18:48.749Z,7.44
2022-11-24T23:21:23.715Z,7.44
2022-11-24T23:23:51.178Z,7.42
2022-11-24T23:26:20.505Z,7.40
2022-11-24T23:28:47.539Z,7.42
2022-11-24T23:31:16.948Z,7.45
2022-11-24T23:33:43.959Z,7.46
2022-11-24T23:36:13.034Z,7.46
2022-11-24T23:38:40.170Z,7.46
2022-11-24T23:41:10.819Z,7.45
2022-11-24T23:43:39.147Z,7.45
2022-11-24T23:46:08.448Z,7.44
2022-11-24T23:48:36.408Z,7.44
2022-11-24T23:51:07.610Z,7.45
2022-11-24T23:53:35.405Z,7.44
2022-11-24T23:56:02.546Z,7.43
2022-11-24T23:58:29.639Z,7.42
